sensor_id;sensor_type;location;lat;lon;timestamp;P1;durP1;ratioP1;P2;durP2;ratioP2
61096;SDS011;46977;50.936;6.908;2023-06-24T00:00:40;3.05;;;2.75;;
61096;SDS011;46977;50.936;6.908;2023-06-24T00:03:44;2.78;;;2.58;;
61096;SDS011;46977;50.936;6.908;2023-06-24T00:06:49;3.47;;;3.17;;
61096;SDS011;46977;50.936;6.908;2023-06-24T00:09:54;3.20;;;3.00;;
61096;SDS011;46977;50.936;6.908;2023-06-24T00:12:56;3.45;;;3.17;;
61096;SDS011;46977;50.936;6.908;2023-06-24T00:15:59;2.83;;;2.63;;
61096;SDS011;46977;50.936;6.908;2023-06-24T00:19:03;3.25;;;2.95;;
61096;SDS011;46977;50.936;6.908;2023-06-24T00:22:06;3.78;;;2.70;;
61096;SDS011;46977;50.936;6.908;2023-06-24T00:25:08;3.20;;;3.00;;
61096;SDS011;46977;50.936;6.908;2023-06-24T00:28:10;3.30;;;3.10;;
61096;SDS011;46977;50.936;6.908;2023-06-24T00:31:13;2.75;;;2.63;;
61096;SDS011;46977;50.936;6.908;2023-06-24T00:34:17;3.00;;;2.90;;
61096;SDS011;46977;50.936;6.908;2023-06-24T00:37:22;2.55;;;2.45;;
61096;SDS011;46977;50.936;6.908;2023-06-24T00:40:24;2.88;;;2.67;;
61096;SDS011;46977;50.936;6.908;2023-06-24T00:43:26;2.28;;;2.17;;
61096;SDS011;46977;50.936;6.908;2023-06-24T00:46:30;3.00;;;2.80;;
61096;SDS011;46977;50.936;6.908;2023-06-24T00:49:36;3.72;;;3.30;;
61096;SDS011;46977;50.936;6.908;2023-06-24T00:52:39;2.90;;;2.42;;
61096;SDS011;46977;50.936;6.908;2023-06-24T00:55:44;2.72;;;2.53;;
61096;SDS011;46977;50.936;6.908;2023-06-24T00:58:47;3.20;;;2.55;;
61096;SDS011;46977;50.936;6.908;2023-06-24T01:01:52;3.03;;;2.78;;
61096;SDS011;46977;50.936;6.908;2023-06-24T01:04:57;3.05;;;2.75;;
61096;SDS011;46977;50.936;6.908;2023-06-24T01:07:59;2.58;;;2.38;;
61096;SDS011;46977;50.936;6.908;2023-06-24T01:11:02;2.90;;;2.58;;
61096;SDS011;46977;50.936;6.908;2023-06-24T01:14:04;4.65;;;2.60;;
61096;SDS011;46977;50.936;6.908;2023-06-24T01:17:08;3.38;;;3.08;;
61096;SDS011;46977;50.936;6.908;2023-06-24T01:20:17;2.33;;;2.08;;
61096;SDS011;46977;50.936;6.908;2023-06-24T01:26:56;2.30;;;2.20;;
61096;SDS011;46977;50.936;6.908;2023-06-24T01:30:33;3.80;;;2.80;;
61096;SDS011;46977;50.936;6.908;2023-06-24T01:33:46;3.03;;;2.25;;
61096;SDS011;46977;50.936;6.908;2023-06-24T01:36:55;2.40;;;2.30;;
61096;SDS011;46977;50.936;6.908;2023-06-24T01:40:05;2.45;;;2.25;;
61096;SDS011;46977;50.936;6.908;2023-06-24T01:43:13;2.78;;;2.58;;
61096;SDS011;46977;50.936;6.908;2023-06-24T01:46:15;2.45;;;2.35;;
61096;SDS011;46977;50.936;6.908;2023-06-24T01:49:20;2.55;;;2.40;;
61096;SDS011;46977;50.936;6.908;2023-06-24T01:52:24;2.30;;;2.20;;
61096;SDS011;46977;50.936;6.908;2023-06-24T01:55:29;2.42;;;2.33;;
61096;SDS011;46977;50.936;6.908;2023-06-24T01:58:33;3.00;;;2.70;;
61096;SDS011;46977;50.936;6.908;2023-06-24T02:01:37;3.78;;;2.90;;
61096;SDS011;46977;50.936;6.908;2023-06-24T02:04:43;2.88;;;2.78;;
61096;SDS011;46977;50.936;6.908;2023-06-24T02:07:45;3.30;;;3.10;;
61096;SDS011;46977;50.936;6.908;2023-06-24T02:10:49;3.53;;;3.10;;
61096;SDS011;46977;50.936;6.908;2023-06-24T02:13:53;3.75;;;3.55;;
61096;SDS011;46977;50.936;6.908;2023-06-24T02:16:56;4.28;;;3.97;;
61096;SDS011;46977;50.936;6.908;2023-06-24T02:20:01;4.18;;;3.97;;
61096;SDS011;46977;50.936;6.908;2023-06-24T02:23:03;3.72;;;3.50;;
61096;SDS011;46977;50.936;6.908;2023-06-24T02:26:07;5.22;;;4.82;;
61096;SDS011;46977;50.936;6.908;2023-06-24T02:29:09;4.90;;;4.47;;
61096;SDS011;46977;50.936;6.908;2023-06-24T02:32:12;4.75;;;4.35;;
61096;SDS011;46977;50.936;6.908;2023-06-24T02:35:16;4.25;;;4.05;;
61096;SDS011;46977;50.936;6.908;2023-06-24T02:38:18;5.20;;;4.90;;
61096;SDS011;46977;50.936;6.908;2023-06-24T02:41:22;4.68;;;4.38;;
61096;SDS011;46977;50.936;6.908;2023-06-24T02:44:24;4.50;;;4.10;;
61096;SDS011;46977;50.936;6.908;2023-06-24T02:47:27;5.28;;;4.78;;
61096;SDS011;46977;50.936;6.908;2023-06-24T02:50:31;5.20;;;4.75;;
61096;SDS011;46977;50.936;6.908;2023-06-24T02:53:34;5.32;;;4.82;;
61096;SDS011;46977;50.936;6.908;2023-06-24T02:56:37;4.80;;;4.45;;
61096;SDS011;46977;50.936;6.908;2023-06-24T02:59:44;4.40;;;4.00;;
61096;SDS011;46977;50.936;6.908;2023-06-24T03:02:47;5.20;;;4.50;;
61096;SDS011;46977;50.936;6.908;2023-06-24T03:05:52;5.22;;;4.72;;
61096;SDS011;46977;50.936;6.908;2023-06-24T03:08:56;5.03;;;4.63;;
61096;SDS011;46977;50.936;6.908;2023-06-24T03:12:00;5.30;;;4.80;;
61096;SDS011;46977;50.936;6.908;2023-06-24T03:15:13;5.50;;;5.10;;
61096;SDS011;46977;50.936;6.908;2023-06-24T03:18:15;5.47;;;4.95;;
61096;SDS011;46977;50.936;6.908;2023-06-24T03:21:20;5.47;;;5.03;;
61096;SDS011;46977;50.936;6.908;2023-06-24T03:24:24;5.57;;;5.07;;
61096;SDS011;46977;50.936;6.908;2023-06-24T03:27:27;5.25;;;4.95;;
61096;SDS011;46977;50.936;6.908;2023-06-24T03:30:30;5.10;;;4.60;;
61096;SDS011;46977;50.936;6.908;2023-06-24T03:33:33;7.60;;;5.40;;
61096;SDS011;46977;50.936;6.908;2023-06-24T03:36:37;5.13;;;4.75;;
61096;SDS011;46977;50.936;6.908;2023-06-24T03:39:42;5.82;;;4.95;;
61096;SDS011;46977;50.936;6.908;2023-06-24T03:42:45;4.78;;;4.40;;
61096;SDS011;46977;50.936;6.908;2023-06-24T03:45:47;4.50;;;4.20;;
61096;SDS011;46977;50.936;6.908;2023-06-24T03:48:52;4.95;;;4.55;;
61096;SDS011;46977;50.936;6.908;2023-06-24T03:51:56;4.20;;;3.90;;
61096;SDS011;46977;50.936;6.908;2023-06-24T03:54:59;4.78;;;4.25;;
61096;SDS011;46977;50.936;6.908;2023-06-24T03:58:03;4.72;;;4.40;;
61096;SDS011;46977;50.936;6.908;2023-06-24T04:01:05;4.47;;;4.15;;
61096;SDS011;46977;50.936;6.908;2023-06-24T04:04:08;4.75;;;4.25;;
61096;SDS011;46977;50.936;6.908;2023-06-24T04:07:12;3.95;;;3.53;;
61096;SDS011;46977;50.936;6.908;2023-06-24T04:10:15;4.32;;;3.95;;
61096;SDS011;46977;50.936;6.908;2023-06-24T04:13:19;4.47;;;4.15;;
61096;SDS011;46977;50.936;6.908;2023-06-24T04:16:21;4.25;;;4.05;;
61096;SDS011;46977;50.936;6.908;2023-06-24T04:19:23;4.90;;;4.07;;
61096;SDS011;46977;50.936;6.908;2023-06-24T04:22:27;4.00;;;3.55;;
61096;SDS011;46977;50.936;6.908;2023-06-24T04:25:32;5.05;;;4.10;;
61096;SDS011;46977;50.936;6.908;2023-06-24T04:28:36;4.60;;;4.20;;
61096;SDS011;46977;50.936;6.908;2023-06-24T04:31:38;4.30;;;3.97;;
61096;SDS011;46977;50.936;6.908;2023-06-24T04:34:41;4.43;;;4.13;;
61096;SDS011;46977;50.936;6.908;2023-06-24T04:37:45;4.60;;;3.60;;
61096;SDS011;46977;50.936;6.908;2023-06-24T04:40:48;4.63;;;4.28;;
61096;SDS011;46977;50.936;6.908;2023-06-24T04:43:51;4.13;;;3.83;;
61096;SDS011;46977;50.936;6.908;2023-06-24T04:46:53;3.95;;;3.65;;
61096;SDS011;46977;50.936;6.908;2023-06-24T04:49:56;3.85;;;3.53;;
61096;SDS011;46977;50.936;6.908;2023-06-24T04:53:00;3.53;;;3.33;;
61096;SDS011;46977;50.936;6.908;2023-06-24T04:56:03;3.97;;;3.67;;
61096;SDS011;46977;50.936;6.908;2023-06-24T04:59:06;3.42;;;3.15;;
61096;SDS011;46977;50.936;6.908;2023-06-24T05:02:08;3.75;;;3.50;;
61096;SDS011;46977;50.936;6.908;2023-06-24T05:05:11;4.05;;;3.75;;
61096;SDS011;46977;50.936;6.908;2023-06-24T05:08:15;3.83;;;3.42;;
61096;SDS011;46977;50.936;6.908;2023-06-24T05:11:18;3.90;;;3.63;;
61096;SDS011;46977;50.936;6.908;2023-06-24T05:14:20;3.80;;;3.58;;
61096;SDS011;46977;50.936;6.908;2023-06-24T05:17:23;4.18;;;3.88;;
61096;SDS011;46977;50.936;6.908;2023-06-24T05:20:25;5.15;;;3.75;;
61096;SDS011;46977;50.936;6.908;2023-06-24T05:23:29;3.25;;;2.72;;
61096;SDS011;46977;50.936;6.908;2023-06-24T05:26:31;3.75;;;3.45;;
61096;SDS011;46977;50.936;6.908;2023-06-24T05:29:34;3.47;;;3.00;;
61096;SDS011;46977;50.936;6.908;2023-06-24T05:32:36;3.13;;;2.85;;
61096;SDS011;46977;50.936;6.908;2023-06-24T05:35:40;3.67;;;2.35;;
61096;SDS011;46977;50.936;6.908;2023-06-24T05:38:46;2.95;;;2.75;;
61096;SDS011;46977;50.936;6.908;2023-06-24T05:41:50;3.35;;;2.95;;
61096;SDS011;46977;50.936;6.908;2023-06-24T05:44:55;3.08;;;2.72;;
61096;SDS011;46977;50.936;6.908;2023-06-24T05:48:05;4.18;;;3.25;;
61096;SDS011;46977;50.936;6.908;2023-06-24T05:51:08;3.83;;;2.90;;
61096;SDS011;46977;50.936;6.908;2023-06-24T05:54:12;3.15;;;2.85;;
61096;SDS011;46977;50.936;6.908;2023-06-24T05:57:14;3.00;;;2.80;;
61096;SDS011;46977;50.936;6.908;2023-06-24T06:00:17;3.70;;;2.53;;
61096;SDS011;46977;50.936;6.908;2023-06-24T06:03:19;2.97;;;2.60;;
61096;SDS011;46977;50.936;6.908;2023-06-24T06:06:22;2.92;;;2.72;;
61096;SDS011;46977;50.936;6.908;2023-06-24T06:09:25;2.55;;;2.38;;
61096;SDS011;46977;50.936;6.908;2023-06-24T06:12:29;3.28;;;2.65;;
61096;SDS011;46977;50.936;6.908;2023-06-24T06:15:31;4.18;;;2.63;;
61096;SDS011;46977;50.936;6.908;2023-06-24T06:18:34;4.70;;;3.40;;
61096;SDS011;46977;50.936;6.908;2023-06-24T06:21:36;4.28;;;2.78;;
61096;SDS011;46977;50.936;6.908;2023-06-24T06:24:40;2.60;;;2.40;;
61096;SDS011;46977;50.936;6.908;2023-06-24T06:27:42;2.28;;;2.05;;
61096;SDS011;46977;50.936;6.908;2023-06-24T06:30:45;4.03;;;2.13;;
61096;SDS011;46977;50.936;6.908;2023-06-24T06:33:47;3.42;;;3.13;;
61096;SDS011;46977;50.936;6.908;2023-06-24T06:36:49;3.20;;;2.63;;
61096;SDS011;46977;50.936;6.908;2023-06-24T06:39:54;2.40;;;2.20;;
61096;SDS011;46977;50.936;6.908;2023-06-24T06:42:56;3.40;;;1.92;;
61096;SDS011;46977;50.936;6.908;2023-06-24T06:45:58;1.77;;;1.65;;
61096;SDS011;46977;50.936;6.908;2023-06-24T06:49:01;2.15;;;1.95;;
61096;SDS011;46977;50.936;6.908;2023-06-24T06:52:03;2.58;;;1.90;;
61096;SDS011;46977;50.936;6.908;2023-06-24T06:55:13;2.40;;;2.30;;
61096;SDS011;46977;50.936;6.908;2023-06-24T06:58:15;2.08;;;1.90;;
61096;SDS011;46977;50.936;6.908;2023-06-24T07:01:19;3.38;;;1.75;;
61096;SDS011;46977;50.936;6.908;2023-06-24T07:04:30;3.80;;;2.17;;
61096;SDS011;46977;50.936;6.908;2023-06-24T07:08:14;2.83;;;1.90;;
61096;SDS011;46977;50.936;6.908;2023-06-24T07:11:24;1.77;;;1.67;;
61096;SDS011;46977;50.936;6.908;2023-06-24T07:14:31;1.50;;;1.30;;
61096;SDS011;46977;50.936;6.908;2023-06-24T07:21:37;2.95;;;1.75;;
61096;SDS011;46977;50.936;6.908;2023-06-24T07:25:03;2.08;;;1.40;;
61096;SDS011;46977;50.936;6.908;2023-06-24T07:31:41;1.35;;;1.23;;
61096;SDS011;46977;50.936;6.908;2023-06-24T07:34:56;2.17;;;1.30;;
61096;SDS011;46977;50.936;6.908;2023-06-24T07:38:00;1.42;;;1.33;;
61096;SDS011;46977;50.936;6.908;2023-06-24T07:41:15;1.58;;;1.48;;
61096;SDS011;46977;50.936;6.908;2023-06-24T07:47:59;1.75;;;1.50;;
61096;SDS011;46977;50.936;6.908;2023-06-24T07:51:32;1.67;;;1.10;;
61096;SDS011;46977;50.936;6.908;2023-06-24T07:54:48;3.15;;;1.50;;
61096;SDS011;46977;50.936;6.908;2023-06-24T07:58:05;1.70;;;1.60;;
61096;SDS011;46977;50.936;6.908;2023-06-24T08:01:26;1.83;;;1.73;;
61096;SDS011;46977;50.936;6.908;2023-06-24T08:04:29;2.33;;;1.30;;
61096;SDS011;46977;50.936;6.908;2023-06-24T08:07:36;2.45;;;1.27;;
61096;SDS011;46977;50.936;6.908;2023-06-24T08:10:39;1.17;;;1.15;;
61096;SDS011;46977;50.936;6.908;2023-06-24T08:13:41;1.40;;;1.30;;
61096;SDS011;46977;50.936;6.908;2023-06-24T08:16:45;2.42;;;2.20;;
61096;SDS011;46977;50.936;6.908;2023-06-24T08:19:48;1.30;;;1.20;;
61096;SDS011;46977;50.936;6.908;2023-06-24T08:22:50;2.28;;;1.45;;
61096;SDS011;46977;50.936;6.908;2023-06-24T08:25:52;3.65;;;1.95;;
61096;SDS011;46977;50.936;6.908;2023-06-24T08:29:09;1.50;;;1.38;;
61096;SDS011;46977;50.936;6.908;2023-06-24T08:32:13;1.67;;;1.23;;
61096;SDS011;46977;50.936;6.908;2023-06-24T08:35:16;3.75;;;2.15;;
61096;SDS011;46977;50.936;6.908;2023-06-24T08:38:19;1.48;;;1.17;;
61096;SDS011;46977;50.936;6.908;2023-06-24T08:41:22;1.60;;;1.13;;
61096;SDS011;46977;50.936;6.908;2023-06-24T08:44:24;2.92;;;1.60;;
61096;SDS011;46977;50.936;6.908;2023-06-24T08:47:28;3.33;;;1.95;;
61096;SDS011;46977;50.936;6.908;2023-06-24T08:50:33;3.58;;;1.92;;
61096;SDS011;46977;50.936;6.908;2023-06-24T08:53:38;2.83;;;2.25;;
61096;SDS011;46977;50.936;6.908;2023-06-24T08:56:40;3.80;;;2.22;;
61096;SDS011;46977;50.936;6.908;2023-06-24T08:59:43;1.70;;;1.40;;
61096;SDS011;46977;50.936;6.908;2023-06-24T09:02:46;2.53;;;1.67;;
61096;SDS011;46977;50.936;6.908;2023-06-24T09:05:49;1.88;;;1.77;;
61096;SDS011;46977;50.936;6.908;2023-06-24T09:08:52;3.38;;;1.60;;
61096;SDS011;46977;50.936;6.908;2023-06-24T09:11:55;1.92;;;1.67;;
61096;SDS011;46977;50.936;6.908;2023-06-24T09:14:59;1.60;;;1.50;;
61096;SDS011;46977;50.936;6.908;2023-06-24T09:18:03;2.25;;;1.20;;
61096;SDS011;46977;50.936;6.908;2023-06-24T09:21:07;2.22;;;2.13;;
61096;SDS011;46977;50.936;6.908;2023-06-24T09:24:09;1.50;;;1.40;;
61096;SDS011;46977;50.936;6.908;2023-06-24T09:27:12;1.95;;;1.40;;
61096;SDS011;46977;50.936;6.908;2023-06-24T09:30:19;1.85;;;1.40;;
61096;SDS011;46977;50.936;6.908;2023-06-24T09:33:25;1.60;;;1.50;;
61096;SDS011;46977;50.936;6.908;2023-06-24T09:36:27;1.45;;;1.33;;
61096;SDS011;46977;50.936;6.908;2023-06-24T09:39:34;1.35;;;1.23;;
61096;SDS011;46977;50.936;6.908;2023-06-24T09:42:37;2.15;;;1.50;;
61096;SDS011;46977;50.936;6.908;2023-06-24T09:45:50;1.80;;;1.70;;
61096;SDS011;46977;50.936;6.908;2023-06-24T09:48:55;1.40;;;1.30;;
61096;SDS011;46977;50.936;6.908;2023-06-24T09:51:58;1.83;;;1.20;;
61096;SDS011;46977;50.936;6.908;2023-06-24T09:55:06;2.60;;;1.20;;
61096;SDS011;46977;50.936;6.908;2023-06-24T09:58:09;1.23;;;1.00;;
61096;SDS011;46977;50.936;6.908;2023-06-24T10:01:12;2.90;;;1.10;;
61096;SDS011;46977;50.936;6.908;2023-06-24T10:04:17;1.95;;;1.10;;
61096;SDS011;46977;50.936;6.908;2023-06-24T10:07:28;2.22;;;1.30;;
61096;SDS011;46977;50.936;6.908;2023-06-24T10:10:51;1.20;;;1.10;;
61096;SDS011;46977;50.936;6.908;2023-06-24T10:13:55;1.20;;;1.20;;
61096;SDS011;46977;50.936;6.908;2023-06-24T10:17:53;2.00;;;1.40;;
61096;SDS011;46977;50.936;6.908;2023-06-24T10:21:49;1.70;;;1.60;;
61096;SDS011;46977;50.936;6.908;2023-06-24T10:24:53;2.10;;;1.90;;
61096;SDS011;46977;50.936;6.908;2023-06-24T10:27:59;1.42;;;1.33;;
61096;SDS011;46977;50.936;6.908;2023-06-24T10:31:01;0.93;;;0.90;;
61096;SDS011;46977;50.936;6.908;2023-06-24T10:34:05;3.03;;;1.50;;
61096;SDS011;46977;50.936;6.908;2023-06-24T10:37:24;1.38;;;1.27;;
61096;SDS011;46977;50.936;6.908;2023-06-24T10:40:34;1.48;;;1.10;;
61096;SDS011;46977;50.936;6.908;2023-06-24T10:43:38;1.80;;;1.08;;
61096;SDS011;46977;50.936;6.908;2023-06-24T10:46:40;1.67;;;1.00;;
61096;SDS011;46977;50.936;6.908;2023-06-24T10:49:45;1.08;;;0.82;;
61096;SDS011;46977;50.936;6.908;2023-06-24T10:52:49;1.05;;;0.95;;
61096;SDS011;46977;50.936;6.908;2023-06-24T10:55:57;1.77;;;0.82;;
61096;SDS011;46977;50.936;6.908;2023-06-24T10:58:59;1.05;;;0.90;;
61096;SDS011;46977;50.936;6.908;2023-06-24T11:02:03;0.90;;;0.90;;
61096;SDS011;46977;50.936;6.908;2023-06-24T11:05:06;0.90;;;0.80;;
61096;SDS011;46977;50.936;6.908;2023-06-24T11:08:11;0.80;;;0.80;;
61096;SDS011;46977;50.936;6.908;2023-06-24T11:11:19;1.92;;;1.20;;
61096;SDS011;46977;50.936;6.908;2023-06-24T11:14:23;1.10;;;0.90;;
61096;SDS011;46977;50.936;6.908;2023-06-24T11:17:26;1.63;;;0.85;;
61096;SDS011;46977;50.936;6.908;2023-06-24T11:20:28;1.52;;;1.00;;
61096;SDS011;46977;50.936;6.908;2023-06-24T11:23:32;0.90;;;0.85;;
61096;SDS011;46977;50.936;6.908;2023-06-24T11:26:35;2.10;;;1.20;;
61096;SDS011;46977;50.936;6.908;2023-06-24T11:29:39;1.88;;;1.00;;
61096;SDS011;46977;50.936;6.908;2023-06-24T11:32:42;2.03;;;1.10;;
61096;SDS011;46977;50.936;6.908;2023-06-24T11:35:46;1.33;;;1.23;;
61096;SDS011;46977;50.936;6.908;2023-06-24T11:38:50;1.20;;;1.10;;
61096;SDS011;46977;50.936;6.908;2023-06-24T11:41:52;2.65;;;1.02;;
61096;SDS011;46977;50.936;6.908;2023-06-24T11:44:58;1.60;;;1.17;;
61096;SDS011;46977;50.936;6.908;2023-06-24T11:48:03;1.52;;;1.30;;
61096;SDS011;46977;50.936;6.908;2023-06-24T11:51:12;2.05;;;1.17;;
61096;SDS011;46977;50.936;6.908;2023-06-24T11:54:21;1.90;;;1.00;;
61096;SDS011;46977;50.936;6.908;2023-06-24T12:00:56;1.85;;;1.02;;
61096;SDS011;46977;50.936;6.908;2023-06-24T12:03:59;3.22;;;1.13;;
61096;SDS011;46977;50.936;6.908;2023-06-24T12:07:02;1.65;;;1.10;;
61096;SDS011;46977;50.936;6.908;2023-06-24T12:10:07;1.13;;;1.02;;
61096;SDS011;46977;50.936;6.908;2023-06-24T12:13:10;1.98;;;1.25;;
61096;SDS011;46977;50.936;6.908;2023-06-24T12:16:12;1.75;;;1.50;;
61096;SDS011;46977;50.936;6.908;2023-06-24T12:19:17;1.80;;;1.00;;
61096;SDS011;46977;50.936;6.908;2023-06-24T12:22:19;1.33;;;1.23;;
61096;SDS011;46977;50.936;6.908;2023-06-24T12:25:24;1.38;;;1.17;;
61096;SDS011;46977;50.936;6.908;2023-06-24T12:28:27;4.30;;;1.55;;
61096;SDS011;46977;50.936;6.908;2023-06-24T12:31:29;1.60;;;1.42;;
61096;SDS011;46977;50.936;6.908;2023-06-24T12:34:32;1.35;;;1.25;;
61096;SDS011;46977;50.936;6.908;2023-06-24T12:37:34;1.05;;;1.00;;
61096;SDS011;46977;50.936;6.908;2023-06-24T12:40:38;4.63;;;1.20;;
61096;SDS011;46977;50.936;6.908;2023-06-24T12:43:41;1.80;;;1.20;;
61096;SDS011;46977;50.936;6.908;2023-06-24T12:46:43;2.88;;;1.35;;
61096;SDS011;46977;50.936;6.908;2023-06-24T12:49:46;1.55;;;0.95;;
61096;SDS011;46977;50.936;6.908;2023-06-24T12:52:48;1.13;;;1.08;;
61096;SDS011;46977;50.936;6.908;2023-06-24T12:55:52;1.67;;;1.13;;
61096;SDS011;46977;50.936;6.908;2023-06-24T12:58:54;1.75;;;1.13;;
61096;SDS011;46977;50.936;6.908;2023-06-24T13:01:56;1.90;;;1.10;;
61096;SDS011;46977;50.936;6.908;2023-06-24T13:04:59;1.45;;;1.20;;
61096;SDS011;46977;50.936;6.908;2023-06-24T13:08:01;1.63;;;1.52;;
61096;SDS011;46977;50.936;6.908;2023-06-24T13:11:07;1.25;;;1.10;;
61096;SDS011;46977;50.936;6.908;2023-06-24T13:14:22;2.35;;;2.17;;
61096;SDS011;46977;50.936;6.908;2023-06-24T13:17:27;2.35;;;1.90;;
61096;SDS011;46977;50.936;6.908;2023-06-24T13:20:29;1.83;;;1.70;;
61096;SDS011;46977;50.936;6.908;2023-06-24T13:23:31;1.88;;;0.90;;
61096;SDS011;46977;50.936;6.908;2023-06-24T13:26:52;1.48;;;1.27;;
61096;SDS011;46977;50.936;6.908;2023-06-24T13:29:55;1.58;;;1.30;;
61096;SDS011;46977;50.936;6.908;2023-06-24T13:33:00;1.33;;;1.23;;
61096;SDS011;46977;50.936;6.908;2023-06-24T13:36:11;3.45;;;1.20;;
61096;SDS011;46977;50.936;6.908;2023-06-24T13:39:57;1.20;;;1.10;;
61096;SDS011;46977;50.936;6.908;2023-06-24T13:43:01;2.25;;;0.93;;
61096;SDS011;46977;50.936;6.908;2023-06-24T13:46:04;1.13;;;1.00;;
61096;SDS011;46977;50.936;6.908;2023-06-24T13:49:06;1.63;;;0.80;;
61096;SDS011;46977;50.936;6.908;2023-06-24T13:52:14;2.83;;;1.10;;
61096;SDS011;46977;50.936;6.908;2023-06-24T13:55:16;1.63;;;1.20;;
61096;SDS011;46977;50.936;6.908;2023-06-24T13:58:19;2.42;;;1.30;;
61096;SDS011;46977;50.936;6.908;2023-06-24T14:01:22;2.15;;;1.30;;
61096;SDS011;46977;50.936;6.908;2023-06-24T14:04:25;1.33;;;1.05;;
61096;SDS011;46977;50.936;6.908;2023-06-24T14:07:27;1.08;;;1.08;;
61096;SDS011;46977;50.936;6.908;2023-06-24T14:10:29;1.15;;;0.90;;
61096;SDS011;46977;50.936;6.908;2023-06-24T14:13:33;1.80;;;1.00;;
61096;SDS011;46977;50.936;6.908;2023-06-24T14:16:38;1.10;;;1.00;;
61096;SDS011;46977;50.936;6.908;2023-06-24T14:19:40;2.83;;;0.90;;
61096;SDS011;46977;50.936;6.908;2023-06-24T14:22:43;0.70;;;0.70;;
61096;SDS011;46977;50.936;6.908;2023-06-24T14:25:48;1.10;;;0.90;;
61096;SDS011;46977;50.936;6.908;2023-06-24T14:28:52;1.02;;;0.80;;
61096;SDS011;46977;50.936;6.908;2023-06-24T14:31:54;1.38;;;0.80;;
61096;SDS011;46977;50.936;6.908;2023-06-24T14:34:56;1.25;;;0.90;;
61096;SDS011;46977;50.936;6.908;2023-06-24T14:37:58;4.18;;;0.95;;
61096;SDS011;46977;50.936;6.908;2023-06-24T14:41:03;1.42;;;0.95;;
61096;SDS011;46977;50.936;6.908;2023-06-24T14:44:06;1.00;;;1.00;;
61096;SDS011;46977;50.936;6.908;2023-06-24T14:47:17;0.80;;;0.80;;
61096;SDS011;46977;50.936;6.908;2023-06-24T14:50:20;1.70;;;0.95;;
61096;SDS011;46977;50.936;6.908;2023-06-24T14:53:24;0.80;;;0.80;;
61096;SDS011;46977;50.936;6.908;2023-06-24T14:56:26;1.75;;;0.88;;
61096;SDS011;46977;50.936;6.908;2023-06-24T14:59:30;0.70;;;0.60;;
61096;SDS011;46977;50.936;6.908;2023-06-24T15:02:32;2.22;;;1.00;;
61096;SDS011;46977;50.936;6.908;2023-06-24T15:05:37;0.70;;;0.70;;
61096;SDS011;46977;50.936;6.908;2023-06-24T15:08:41;0.77;;;0.77;;
61096;SDS011;46977;50.936;6.908;2023-06-24T15:11:43;0.60;;;0.60;;
61096;SDS011;46977;50.936;6.908;2023-06-24T15:14:47;1.05;;;0.68;;
61096;SDS011;46977;50.936;6.908;2023-06-24T15:17:50;1.05;;;0.60;;
61096;SDS011;46977;50.936;6.908;2023-06-24T15:20:52;2.55;;;0.70;;
61096;SDS011;46977;50.936;6.908;2023-06-24T15:23:56;0.82;;;0.75;;
61096;SDS011;46977;50.936;6.908;2023-06-24T15:26:58;1.30;;;0.70;;
61096;SDS011;46977;50.936;6.908;2023-06-24T15:30:02;0.75;;;0.70;;
61096;SDS011;46977;50.936;6.908;2023-06-24T15:33:05;0.70;;;0.70;;
61096;SDS011;46977;50.936;6.908;2023-06-24T15:36:07;1.63;;;0.90;;
61096;SDS011;46977;50.936;6.908;2023-06-24T15:39:10;0.73;;;0.73;;
61096;SDS011;46977;50.936;6.908;2023-06-24T15:42:12;1.00;;;1.00;;
61096;SDS011;46977;50.936;6.908;2023-06-24T15:45:17;0.68;;;0.65;;
61096;SDS011;46977;50.936;6.908;2023-06-24T15:48:19;1.00;;;0.90;;
61096;SDS011;46977;50.936;6.908;2023-06-24T15:51:22;1.20;;;0.80;;
61096;SDS011;46977;50.936;6.908;2023-06-24T15:54:24;1.13;;;1.00;;
61096;SDS011;46977;50.936;6.908;2023-06-24T15:57:26;0.70;;;0.70;;
61096;SDS011;46977;50.936;6.908;2023-06-24T16:00:30;0.70;;;0.70;;
61096;SDS011;46977;50.936;6.908;2023-06-24T16:03:32;0.93;;;0.80;;
61096;SDS011;46977;50.936;6.908;2023-06-24T16:06:34;0.80;;;0.80;;
61096;SDS011;46977;50.936;6.908;2023-06-24T16:09:37;1.08;;;0.70;;
61096;SDS011;46977;50.936;6.908;2023-06-24T16:12:39;0.77;;;0.77;;
61096;SDS011;46977;50.936;6.908;2023-06-24T16:15:43;0.70;;;0.70;;
61096;SDS011;46977;50.936;6.908;2023-06-24T16:18:45;1.02;;;0.60;;
61096;SDS011;46977;50.936;6.908;2023-06-24T16:21:47;1.58;;;0.70;;
61096;SDS011;46977;50.936;6.908;2023-06-24T16:24:50;0.80;;;0.80;;
61096;SDS011;46977;50.936;6.908;2023-06-24T16:27:52;0.50;;;0.50;;
61096;SDS011;46977;50.936;6.908;2023-06-24T16:30:55;1.50;;;0.68;;
61096;SDS011;46977;50.936;6.908;2023-06-24T16:33:58;0.70;;;0.70;;
61096;SDS011;46977;50.936;6.908;2023-06-24T16:37:00;0.65;;;0.52;;
61096;SDS011;46977;50.936;6.908;2023-06-24T16:40:02;0.98;;;0.77;;
61096;SDS011;46977;50.936;6.908;2023-06-24T16:43:05;2.60;;;0.85;;
61096;SDS011;46977;50.936;6.908;2023-06-24T16:46:09;0.60;;;0.60;;
61096;SDS011;46977;50.936;6.908;2023-06-24T16:49:18;3.72;;;0.55;;
61096;SDS011;46977;50.936;6.908;2023-06-24T16:52:21;0.80;;;0.57;;
61096;SDS011;46977;50.936;6.908;2023-06-24T16:55:23;1.30;;;0.70;;
61096;SDS011;46977;50.936;6.908;2023-06-24T16:58:26;0.70;;;0.70;;
61096;SDS011;46977;50.936;6.908;2023-06-24T17:01:30;2.08;;;0.80;;
61096;SDS011;46977;50.936;6.908;2023-06-24T17:04:34;0.80;;;0.70;;
61096;SDS011;46977;50.936;6.908;2023-06-24T17:07:37;0.90;;;0.70;;
61096;SDS011;46977;50.936;6.908;2023-06-24T17:10:39;2.75;;;1.15;;
61096;SDS011;46977;50.936;6.908;2023-06-24T17:13:42;1.50;;;0.80;;
61096;SDS011;46977;50.936;6.908;2023-06-24T17:16:46;0.65;;;0.50;;
61096;SDS011;46977;50.936;6.908;2023-06-24T17:19:55;1.30;;;0.75;;
61096;SDS011;46977;50.936;6.908;2023-06-24T17:22:58;0.68;;;0.68;;
61096;SDS011;46977;50.936;6.908;2023-06-24T17:26:00;1.10;;;0.50;;
61096;SDS011;46977;50.936;6.908;2023-06-24T17:29:04;0.70;;;0.70;;
61096;SDS011;46977;50.936;6.908;2023-06-24T17:32:09;1.52;;;0.50;;
61096;SDS011;46977;50.936;6.908;2023-06-24T17:35:11;0.70;;;0.70;;
61096;SDS011;46977;50.936;6.908;2023-06-24T17:38:14;0.68;;;0.68;;
61096;SDS011;46977;50.936;6.908;2023-06-24T17:41:16;0.73;;;0.60;;
61096;SDS011;46977;50.936;6.908;2023-06-24T17:44:18;1.50;;;1.40;;
61096;SDS011;46977;50.936;6.908;2023-06-24T17:47:22;4.53;;;4.28;;
61096;SDS011;46977;50.936;6.908;2023-06-24T17:50:30;2.38;;;2.28;;
61096;SDS011;46977;50.936;6.908;2023-06-24T17:53:34;1.67;;;1.10;;
61096;SDS011;46977;50.936;6.908;2023-06-24T17:56:38;1.05;;;0.90;;
61096;SDS011;46977;50.936;6.908;2023-06-24T17:59:41;0.80;;;0.80;;
61096;SDS011;46977;50.936;6.908;2023-06-24T18:02:48;0.80;;;0.80;;
61096;SDS011;46977;50.936;6.908;2023-06-24T18:05:50;0.90;;;0.90;;
61096;SDS011;46977;50.936;6.908;2023-06-24T18:08:55;1.58;;;0.90;;
61096;SDS011;46977;50.936;6.908;2023-06-24T18:11:57;1.65;;;0.70;;
61096;SDS011;46977;50.936;6.908;2023-06-24T18:15:00;1.58;;;0.60;;
61096;SDS011;46977;50.936;6.908;2023-06-24T18:18:03;0.80;;;0.80;;
61096;SDS011;46977;50.936;6.908;2023-06-24T18:21:06;1.10;;;0.70;;
61096;SDS011;46977;50.936;6.908;2023-06-24T18:24:10;1.23;;;0.80;;
61096;SDS011;46977;50.936;6.908;2023-06-24T18:27:12;1.27;;;0.70;;
61096;SDS011;46977;50.936;6.908;2023-06-24T18:30:15;0.70;;;0.70;;
61096;SDS011;46977;50.936;6.908;2023-06-24T18:33:18;0.93;;;0.80;;
61096;SDS011;46977;50.936;6.908;2023-06-24T18:36:21;0.75;;;0.70;;
61096;SDS011;46977;50.936;6.908;2023-06-24T18:39:24;1.98;;;1.17;;
61096;SDS011;46977;50.936;6.908;2023-06-24T18:42:27;0.70;;;0.70;;
61096;SDS011;46977;50.936;6.908;2023-06-24T18:45:30;0.73;;;0.73;;
61096;SDS011;46977;50.936;6.908;2023-06-24T18:48:33;0.85;;;0.63;;
61096;SDS011;46977;50.936;6.908;2023-06-24T18:51:35;1.27;;;0.75;;